Time;durP1;ratioP1;P1;durP2;ratioP2;P2;SDS_P1;SDS_P2;PMS_P1;PMS_P2;Temp;Humidity;BMP_temperature;BMP_pressure;BME280_temperature;BME280_humidity;BME280_pressure;Samples;Min_cycle;Max_cycle;Signal;HPM_P1;HPM_P2
2023/01/27 00:00:29;;;;;;;18.98;2.63;;;6.30;99.90;;;;;;5047898;28;20041;-75
2023/01/27 00:02:54;;;;;;;20.60;3.42;;;6.30;99.90;;;;;;5047765;28;20105;-75
2023/01/27 00:05:21;;;;;;;20.63;3.00;;;6.40;99.90;;;;;;5050364;28;20100;-75
2023/01/27 00:07:46;;;;;;;19.08;2.90;;;6.30;99.90;;;;;;5029425;28;20468;-75
2023/01/27 00:10:15;;;;;;;19.77;3.30;;;6.40;99.90;;;;;;5049049;28;20078;-75
2023/01/27 00:15:27;;;;;;;10.57;1.73;;;6.30;99.90;;;;;;5041788;28;20403;-75
2023/01/27 00:17:52;;;;;;;24.77;3.38;;;6.40;99.90;;;;;;5050756;28;20021;-75
2023/01/27 00:25:57;;;;;;;16.63;2.25;;;6.40;99.90;;;;;;5050635;28;20064;-75
2023/01/27 00:28:24;;;;;;;26.45;2.53;;;6.40;99.90;;;;;;5050059;28;20040;-75
2023/01/27 00:30:50;;;;;;;18.33;2.35;;;6.40;99.90;;;;;;5051013;28;20033;-75
2023/01/27 00:33:27;;;;;;;21.98;3.03;;;6.40;99.90;;;;;;5050598;28;20021;-75
2023/01/27 00:36:04;;;;;;;32.08;3.10;;;6.40;99.90;;;;;;5041081;28;20071;-75
2023/01/27 00:38:32;;;;;;;21.73;2.75;;;6.40;99.90;;;;;;5040615;28;20029;-78
2023/01/27 00:43:42;;;;;;;20.10;3.03;;;6.40;99.90;;;;;;5042019;28;20040;-75
2023/01/27 00:46:08;;;;;;;12.95;2.22;;;6.40;99.90;;;;;;5037688;28;20033;-74
2023/01/27 00:48:35;;;;;;;21.92;2.65;;;6.40;99.90;;;;;;5036433;28;20388;-75
2023/01/27 00:51:01;;;;;;;14.75;2.67;;;6.40;99.90;;;;;;5020330;28;20049;-75
2023/01/27 00:53:26;;;;;;;23.63;2.90;;;6.40;99.90;;;;;;5046190;28;20025;-75
2023/01/27 00:55:52;;;;;;;11.43;2.17;;;6.40;99.90;;;;;;5046745;28;20024;-75
2023/01/27 00:58:18;;;;;;;19.65;2.50;;;6.40;99.90;;;;;;5033468;28;20022;-75
2023/01/27 01:00:44;;;;;;;13.68;2.33;;;6.40;99.90;;;;;;5033123;28;20496;-75
2023/01/27 01:03:09;;;;;;;10.85;1.98;;;6.40;99.90;;;;;;5037973;28;20500;-75
2023/01/27 01:05:35;;;;;;;16.73;2.35;;;6.40;99.90;;;;;;5041541;28;20056;-75
2023/01/27 01:08:01;;;;;;;14.07;2.08;;;6.40;99.90;;;;;;5039418;28;20361;-75
2023/01/27 01:10:27;;;;;;;13.02;1.88;;;6.40;99.90;;;;;;5049524;28;20033;-75
2023/01/27 01:12:52;;;;;;;16.05;2.08;;;6.40;99.90;;;;;;5036307;28;20032;-75
2023/01/27 01:15:18;;;;;;;13.43;2.10;;;6.40;99.90;;;;;;5030834;28;20102;-75
2023/01/27 01:17:43;;;;;;;17.58;2.13;;;6.40;99.90;;;;;;5037173;28;20480;-75
2023/01/27 01:20:10;;;;;;;18.17;2.45;;;6.40;99.90;;;;;;5038911;28;20044;-75
2023/01/27 01:22:35;;;;;;;15.85;2.28;;;6.30;99.90;;;;;;5035342;28;20037;-74
2023/01/27 01:25:01;;;;;;;14.00;2.00;;;6.40;99.90;;;;;;5039822;28;20094;-75
2023/01/27 01:27:28;;;;;;;14.57;2.38;;;6.40;99.90;;;;;;5037706;28;20013;-75
2023/01/27 01:29:54;;;;;;;12.63;1.92;;;6.40;99.90;;;;;;5043087;28;20033;-75
2023/01/27 01:32:19;;;;;;;15.10;2.17;;;6.40;99.90;;;;;;5033092;28;20043;-75
2023/01/27 01:34:45;;;;;;;11.45;2.13;;;6.40;99.90;;;;;;5047061;28;20017;-75
2023/01/27 01:37:10;;;;;;;11.90;2.63;;;6.30;99.90;;;;;;5044567;28;20130;-75
2023/01/27 01:39:36;;;;;;;14.32;2.10;;;6.30;99.90;;;;;;5049657;28;20036;-75
2023/01/27 01:42:02;;;;;;;11.23;2.20;;;6.30;99.90;;;;;;5041132;28;20018;-75
2023/01/27 01:44:30;;;;;;;12.98;2.13;;;6.30;99.90;;;;;;5040635;28;20559;-75
2023/01/27 01:46:56;;;;;;;14.63;2.63;;;6.30;99.90;;;;;;5053190;28;20037;-75
2023/01/27 01:49:37;;;;;;;11.00;2.15;;;6.30;99.90;;;;;;5046922;28;20113;-74
2023/01/27 01:52:10;;;;;;;13.75;2.35;;;6.30;99.90;;;;;;5038330;28;21720;-75
2023/01/27 01:54:53;;;;;;;15.02;2.70;;;6.30;99.90;;;;;;5034961;28;20086;-75
2023/01/27 01:57:24;;;;;;;12.63;2.78;;;6.30;99.90;;;;;;5047526;28;20537;-75
2023/01/27 01:59:56;;;;;;;20.75;3.10;;;6.20;99.90;;;;;;5052202;28;20056;-75
2023/01/27 02:02:23;;;;;;;11.23;2.58;;;6.20;99.90;;;;;;5035125;28;20510;-75
2023/01/27 02:04:57;;;;;;;16.33;2.78;;;6.20;99.90;;;;;;5053251;28;20406;-75
2023/01/27 02:07:48;;;;;;;14.30;2.72;;;6.20;99.90;;;;;;5049569;28;20076;-75
2023/01/27 02:10:14;;;;;;;16.55;2.95;;;6.20;99.90;;;;;;5041046;28;20036;-75
2023/01/27 02:12:40;;;;;;;16.55;3.20;;;6.10;99.90;;;;;;5049371;28;20028;-75
2023/01/27 02:15:06;;;;;;;11.75;2.97;;;6.10;99.90;;;;;;5051330;28;20376;-75
2023/01/27 02:17:32;;;;;;;12.77;3.58;;;6.10;99.90;;;;;;5050761;28;20480;-75
2023/01/27 02:20:04;;;;;;;16.67;3.53;;;6.10;99.90;;;;;;5052367;28;20039;-75
2023/01/27 02:22:48;;;;;;;8.02;2.95;;;6.00;99.90;;;;;;5046899;28;20117;-75
2023/01/27 02:25:30;;;;;;;14.02;3.00;;;6.00;99.90;;;;;;5051308;28;20032;-75
2023/01/27 02:27:56;;;;;;;12.70;3.42;;;6.10;99.90;;;;;;5052855;28;20492;-75
2023/01/27 02:30:21;;;;;;;12.35;3.20;;;6.10;99.90;;;;;;5029087;28;20082;-75
2023/01/27 02:32:47;;;;;;;10.63;3.22;;;6.00;99.90;;;;;;5051369;28;20118;-75
2023/01/27 02:35:18;;;;;;;14.85;4.10;;;6.00;99.90;;;;;;5052375;28;20032;-75
2023/01/27 02:37:45;;;;;;;11.45;3.67;;;6.00;99.90;;;;;;5051475;28;20484;-75
2023/01/27 02:40:12;;;;;;;9.43;3.63;;;5.90;99.90;;;;;;5037438;28;20037;-75
2023/01/27 02:42:38;;;;;;;13.77;4.20;;;5.90;99.90;;;;;;5049378;28;20059;-75
2023/01/27 02:45:04;;;;;;;11.75;4.15;;;5.90;99.90;;;;;;5052117;28;20069;-75
2023/01/27 02:47:29;;;;;;;13.48;4.28;;;5.80;99.90;;;;;;5041894;28;20037;-75
2023/01/27 02:49:55;;;;;;;12.50;3.85;;;5.80;99.90;;;;;;5052551;28;20049;-75
2023/01/27 02:52:22;;;;;;;14.98;4.75;;;5.80;99.90;;;;;;5041587;28;20112;-75
2023/01/27 02:54:48;;;;;;;11.45;4.43;;;5.80;99.90;;;;;;5040885;28;20029;-75
2023/01/27 02:57:13;;;;;;;11.13;4.40;;;5.70;99.90;;;;;;5046969;28;20032;-75
2023/01/27 02:59:39;;;;;;;9.50;4.38;;;5.70;99.90;;;;;;5050421;28;20025;-75
2023/01/27 03:02:05;;;;;;;15.88;5.72;;;5.70;99.90;;;;;;5051464;28;20063;-75
2023/01/27 03:04:31;;;;;;;11.85;6.05;;;5.70;99.90;;;;;;5045421;28;20021;-75
2023/01/27 03:06:57;;;;;;;12.52;5.85;;;5.60;99.90;;;;;;5040527;28;20038;-75
2023/01/27 03:09:22;;;;;;;16.15;5.93;;;5.60;99.90;;;;;;5046804;28;20033;-75
2023/01/27 03:20:01;;;;;;;12.70;6.90;;;5.50;99.90;;;;;;5043614;28;20044;-75
2023/01/27 03:22:26;;;;;;;14.45;7.90;;;5.50;99.90;;;;;;5040428;28;20443;-75
2023/01/27 03:24:52;;;;;;;16.63;8.10;;;5.50;99.90;;;;;;5050008;28;20045;-75
2023/01/27 03:27:18;;;;;;;18.67;9.00;;;5.50;99.90;;;;;;5048684;28;20125;-75
2023/01/27 03:29:56;;;;;;;22.80;8.63;;;5.50;99.90;;;;;;5047782;28;20030;-75
2023/01/27 03:32:30;;;;;;;22.55;9.57;;;5.40;99.90;;;;;;5051650;28;20458;-75
2023/01/27 03:35:00;;;;;;;20.05;9.10;;;5.40;99.90;;;;;;5046756;28;20105;-75
2023/01/27 03:48:33;;;;;;;21.05;10.70;;;5.20;99.90;;;;;;5035216;28;20041;-75
2023/01/27 03:51:00;;;;;;;20.17;10.63;;;5.20;99.90;;;;;;5043580;28;20054;-75
2023/01/27 03:53:26;;;;;;;21.58;10.75;;;5.20;99.90;;;;;;5049323;28;20017;-75
2023/01/27 03:55:52;;;;;;;21.95;10.75;;;5.20;99.90;;;;;;5041213;28;20499;-75
2023/01/27 03:58:27;;;;;;;23.35;10.88;;;5.20;99.90;;;;;;5040874;28;20082;-75
2023/01/27 04:01:00;;;;;;;20.60;10.50;;;5.20;99.90;;;;;;5035428;28;20064;-75
2023/01/27 04:09:02;;;;;;;18.80;10.20;;;5.10;99.90;;;;;;5046643;28;20106;-75
2023/01/27 04:14:13;;;;;;;19.25;10.80;;;5.10;99.90;;;;;;5034784;28;20200;-75
2023/01/27 04:16:39;;;;;;;21.85;11.00;;;5.10;99.90;;;;;;5040465;28;20092;-75
2023/01/27 04:19:07;;;;;;;21.88;11.02;;;5.10;99.90;;;;;;5027046;28;20034;-75
2023/01/27 04:21:33;;;;;;;25.15;11.80;;;5.10;99.90;;;;;;5051355;28;20353;-75
2023/01/27 04:23:59;;;;;;;21.02;11.23;;;5.10;99.90;;;;;;5050909;28;20086;-75
2023/01/27 04:26:32;;;;;;;22.52;11.50;;;5.10;99.90;;;;;;5040827;28;20034;-75
2023/01/27 04:28:58;;;;;;;21.05;11.38;;;5.10;99.90;;;;;;5038112;28;20037;-75
2023/01/27 04:31:24;;;;;;;21.70;11.43;;;5.10;99.90;;;;;;5042207;28;20501;-75
2023/01/27 04:33:49;;;;;;;22.60;11.18;;;5.00;99.90;;;;;;5051066;28;20526;-75
2023/01/27 04:36:15;;;;;;;22.20;11.30;;;5.10;99.90;;;;;;5048854;28;20150;-75
2023/01/27 04:38:41;;;;;;;21.10;11.48;;;5.00;99.90;;;;;;5030822;28;20460;-75
2023/01/27 04:41:07;;;;;;;23.92;11.63;;;5.00;99.90;;;;;;5045235;28;20040;-75
2023/01/27 04:43:32;;;;;;;21.63;11.55;;;5.00;99.90;;;;;;5043192;28;20036;-75
2023/01/27 04:45:58;;;;;;;23.35;12.60;;;5.00;99.90;;;;;;5048660;28;20021;-75
2023/01/27 04:48:23;;;;;;;23.10;12.18;;;5.00;99.90;;;;;;5050128;28;20025;-75
2023/01/27 04:50:49;;;;;;;27.63;12.80;;;5.00;99.90;;;;;;5049995;28;20154;-75
2023/01/27 04:53:15;;;;;;;21.90;12.43;;;5.00;99.90;;;;;;5040799;28;20431;-75
2023/01/27 04:55:46;;;;;;;23.48;12.32;;;5.00;99.90;;;;;;5046815;28;20546;-75
2023/01/27 04:58:13;;;;;;;23.17;12.40;;;5.00;99.90;;;;;;5038788;28;20071;-75
2023/01/27 05:00:39;;;;;;;21.02;11.50;;;4.90;99.90;;;;;;5048312;28;20495;-75
2023/01/27 05:03:05;;;;;;;20.55;11.10;;;4.90;99.90;;;;;;5046993;28;20033;-75
2023/01/27 05:05:31;;;;;;;20.00;11.52;;;4.90;99.90;;;;;;5045292;28;20025;-75
2023/01/27 05:08:04;;;;;;;19.35;11.57;;;4.90;99.90;;;;;;5050103;28;20025;-75
2023/01/27 05:10:30;;;;;;;19.25;10.85;;;4.90;99.90;;;;;;5037044;28;20480;-75
2023/01/27 05:12:56;;;;;;;16.75;9.27;;;4.90;99.90;;;;;;5050266;28;20036;-75
2023/01/27 05:15:22;;;;;;;14.35;8.20;;;4.90;99.90;;;;;;5046012;28;20539;-74
2023/01/27 05:17:47;;;;;;;12.23;7.80;;;4.90;99.90;;;;;;5046578;28;20067;-75
2023/01/27 05:20:13;;;;;;;17.42;8.05;;;4.90;99.90;;;;;;5047161;28;20025;-74
2023/01/27 05:22:41;;;;;;;16.50;8.90;;;4.90;99.90;;;;;;5048810;28;20036;-74
2023/01/27 05:25:07;;;;;;;12.23;7.78;;;4.90;99.90;;;;;;5043885;28;20044;-74
2023/01/27 05:27:33;;;;;;;14.27;7.47;;;4.90;99.90;;;;;;5042701;28;20024;-73
2023/01/27 05:29:58;;;;;;;21.58;7.60;;;4.90;99.90;;;;;;5050903;28;20024;-74
2023/01/27 05:32:24;;;;;;;9.98;6.18;;;4.90;99.90;;;;;;5050103;28;20021;-73
2023/01/27 05:34:49;;;;;;;11.70;6.45;;;4.90;99.90;;;;;;5047327;28;20051;-74
2023/01/27 05:37:15;;;;;;;9.10;6.30;;;4.90;99.90;;;;;;5039595;28;20029;-74
2023/01/27 05:39:40;;;;;;;9.20;5.90;;;4.90;99.90;;;;;;5049656;28;20025;-74
2023/01/27 05:42:06;;;;;;;9.73;6.32;;;4.90;99.90;;;;;;5032090;28;20111;-74
2023/01/27 05:44:32;;;;;;;8.30;5.75;;;4.90;99.90;;;;;;5031934;28;20029;-73
2023/01/27 05:46:57;;;;;;;11.95;6.00;;;4.90;99.90;;;;;;5030234;28;20485;-74
2023/01/27 05:49:23;;;;;;;7.40;5.93;;;4.90;99.90;;;;;;5030446;28;20045;-74
2023/01/27 05:51:49;;;;;;;9.35;5.40;;;4.90;99.90;;;;;;5043184;28;20108;-74
2023/01/27 05:54:14;;;;;;;9.13;5.50;;;4.90;99.90;;;;;;5034719;28;20017;-73
2023/01/27 05:56:40;;;;;;;8.82;5.70;;;4.90;99.90;;;;;;5032316;28;20487;-73
2023/01/27 05:59:06;;;;;;;7.50;5.55;;;4.90;99.90;;;;;;5035893;28;20030;-74
2023/01/27 06:01:33;;;;;;;8.90;5.75;;;4.90;99.90;;;;;;5035500;28;20379;-74
2023/01/27 06:03:59;;;;;;;7.25;5.50;;;4.90;99.90;;;;;;5030915;28;20064;-74
2023/01/27 06:06:27;;;;;;;7.60;5.28;;;4.90;99.90;;;;;;5015151;28;20021;-74
2023/01/27 06:08:53;;;;;;;8.65;5.60;;;4.90;99.90;;;;;;5034442;28;20124;-74
2023/01/27 06:11:21;;;;;;;8.07;4.95;;;4.90;99.90;;;;;;5030287;28;20097;-73
2023/01/27 06:13:47;;;;;;;6.18;5.00;;;4.90;99.90;;;;;;5033767;28;20033;-74
2023/01/27 06:16:16;;;;;;;7.72;4.47;;;4.90;99.90;;;;;;5028932;28;20029;-73
2023/01/27 06:18:43;;;;;;;5.25;4.00;;;5.00;99.90;;;;;;5035535;28;20377;-74
2023/01/27 06:21:10;;;;;;;6.78;4.32;;;5.00;99.90;;;;;;5028614;28;20034;-74
2023/01/27 06:23:36;;;;;;;6.55;4.40;;;5.00;99.90;;;;;;5038051;28;20116;-74
2023/01/27 06:26:06;;;;;;;6.60;4.63;;;5.00;99.90;;;;;;5037255;28;20104;-74
2023/01/27 06:28:31;;;;;;;7.15;4.40;;;5.00;99.90;;;;;;5032956;28;20389;-74
2023/01/27 06:31:23;;;;;;;7.00;4.30;;;5.00;99.90;;;;;;5034715;28;20030;-74
2023/01/27 06:33:50;;;;;;;7.38;4.20;;;5.00;99.90;;;;;;5032821;28;20117;-74
2023/01/27 06:36:18;;;;;;;8.20;4.13;;;5.00;99.90;;;;;;5035213;28;20028;-74
2023/01/27 06:38:45;;;;;;;4.40;3.83;;;5.00;99.90;;;;;;5033222;28;20370;-74
2023/01/27 06:41:11;;;;;;;4.85;4.00;;;4.90;99.90;;;;;;5032633;28;20380;-74
2023/01/27 06:43:37;;;;;;;7.05;4.25;;;5.00;99.90;;;;;;5037513;28;20039;-74
2023/01/27 06:46:03;;;;;;;5.45;4.10;;;5.00;99.90;;;;;;5035602;28;20025;-74
2023/01/27 06:48:28;;;;;;;4.20;3.80;;;4.90;99.90;;;;;;5036956;28;20424;-74
2023/01/27 06:50:55;;;;;;;6.00;3.40;;;4.90;99.90;;;;;;5038635;28;20187;-74
2023/01/27 06:53:21;;;;;;;6.10;3.30;;;4.90;99.90;;;;;;5043447;28;20029;-73
2023/01/27 06:55:47;;;;;;;4.65;3.30;;;4.90;99.90;;;;;;5036667;28;20030;-74
2023/01/27 06:58:14;;;;;;;4.07;3.35;;;4.90;99.90;;;;;;5032334;28;20026;-74
2023/01/27 07:00:41;;;;;;;6.13;3.00;;;4.90;99.90;;;;;;5035529;28;20030;-74
2023/01/27 07:03:09;;;;;;;7.60;3.00;;;4.90;99.90;;;;;;5034514;28;20083;-74
2023/01/27 07:05:35;;;;;;;4.88;2.90;;;4.90;99.90;;;;;;5044099;28;20025;-74
2023/01/27 07:08:00;;;;;;;7.35;3.38;;;4.90;99.90;;;;;;5048149;28;20502;-74
2023/01/27 07:10:26;;;;;;;5.72;2.90;;;4.90;99.90;;;;;;5050424;28;20033;-74
2023/01/27 07:12:52;;;;;;;5.65;3.22;;;4.90;99.90;;;;;;5035643;28;20057;-75
2023/01/27 07:15:18;;;;;;;6.38;2.92;;;4.90;99.90;;;;;;5046179;28;20065;-74
2023/01/27 07:17:43;;;;;;;5.18;3.15;;;4.90;99.90;;;;;;5040514;28;20428;-74
2023/01/27 07:20:12;;;;;;;7.72;2.97;;;4.90;99.90;;;;;;5033038;28;20040;-74
2023/01/27 07:22:37;;;;;;;6.25;3.13;;;4.80;99.90;;;;;;5039158;28;20403;-75
2023/01/27 07:25:05;;;;;;;4.97;3.28;;;4.80;99.90;;;;;;5036469;28;20018;-75
2023/01/27 07:27:31;;;;;;;9.55;4.80;;;4.80;99.90;;;;;;5045021;28;20102;-75
2023/01/27 07:29:56;;;;;;;4.95;3.40;;;4.80;99.90;;;;;;5041116;28;20057;-75
2023/01/27 07:32:22;;;;;;;5.57;3.13;;;4.80;99.90;;;;;;5044150;28;20043;-73
2023/01/27 07:34:47;;;;;;;5.68;3.10;;;4.70;99.90;;;;;;5051476;28;20020;-74
2023/01/27 07:37:13;;;;;;;6.95;3.33;;;4.70;99.90;;;;;;5046594;28;20029;-74
2023/01/27 07:39:39;;;;;;;7.82;3.10;;;4.70;99.90;;;;;;5032295;28;20104;-74
2023/01/27 07:42:05;;;;;;;5.10;2.95;;;4.70;99.90;;;;;;5045055;28;20038;-74
2023/01/27 07:44:31;;;;;;;3.65;2.90;;;4.70;99.90;;;;;;5051900;28;20029;-74
2023/01/27 07:46:58;;;;;;;4.82;3.22;;;4.70;99.90;;;;;;5032495;28;20037;-74
2023/01/27 07:49:24;;;;;;;6.80;3.47;;;4.70;99.90;;;;;;5050000;28;20049;-74
2023/01/27 07:51:49;;;;;;;4.35;3.20;;;4.70;99.90;;;;;;5049156;28;20416;-74
2023/01/27 07:54:15;;;;;;;4.57;2.70;;;4.70;99.90;;;;;;5047926;28;20531;-74
2023/01/27 07:56:41;;;;;;;5.78;2.55;;;4.70;99.90;;;;;;5048425;28;20037;-74
2023/01/27 07:59:08;;;;;;;6.35;3.13;;;4.70;99.90;;;;;;5048535;28;20109;-74
2023/01/27 08:01:34;;;;;;;5.95;2.60;;;4.70;99.90;;;;;;5043818;28;20044;-74
2023/01/27 08:03:59;;;;;;;6.95;2.33;;;4.70;99.90;;;;;;5044899;28;20487;-74
2023/01/27 08:06:25;;;;;;;6.43;2.58;;;4.70;99.90;;;;;;5041586;28;20025;-74
2023/01/27 08:08:50;;;;;;;5.13;2.60;;;4.70;99.90;;;;;;5045827;28;20029;-74
2023/01/27 08:11:16;;;;;;;4.55;2.35;;;4.70;99.90;;;;;;5040621;28;20059;-74
2023/01/27 08:13:42;;;;;;;6.22;2.35;;;4.70;99.90;;;;;;5041416;28;20087;-74
2023/01/27 08:16:12;;;;;;;4.32;2.05;;;4.70;99.90;;;;;;5043977;28;20101;-74
2023/01/27 08:18:37;;;;;;;6.63;2.50;;;4.60;99.90;;;;;;5039548;28;20492;-73
2023/01/27 08:21:05;;;;;;;6.35;2.25;;;4.60;99.90;;;;;;5033834;28;20036;-74
2023/01/27 08:23:31;;;;;;;4.88;1.90;;;4.60;99.90;;;;;;5037087;28;20067;-73
2023/01/27 08:25:59;;;;;;;6.32;2.40;;;4.60;99.90;;;;;;5051144;28;20483;-73
2023/01/27 08:28:27;;;;;;;5.18;2.40;;;4.60;99.90;;;;;;5029708;28;20112;-74
2023/01/27 08:30:53;;;;;;;5.25;2.03;;;4.60;99.90;;;;;;5047186;28;20391;-73
2023/01/27 08:33:20;;;;;;;4.43;2.20;;;4.60;99.90;;;;;;5038528;28;20028;-74
2023/01/27 08:35:46;;;;;;;4.47;2.10;;;4.60;99.90;;;;;;5042090;28;20380;-74
2023/01/27 08:38:14;;;;;;;7.78;2.10;;;4.60;99.90;;;;;;5044522;28;20052;-74
2023/01/27 08:40:41;;;;;;;4.63;1.85;;;4.60;99.90;;;;;;5049291;28;20031;-74
2023/01/27 08:43:07;;;;;;;3.97;2.10;;;4.60;99.90;;;;;;5048189;28;20024;-74
2023/01/27 08:45:33;;;;;;;3.50;2.10;;;4.60;99.90;;;;;;5030988;28;20025;-74
2023/01/27 08:48:00;;;;;;;5.13;2.10;;;4.70;99.90;;;;;;5041129;28;20037;-74
2023/01/27 08:50:26;;;;;;;6.85;2.30;;;4.70;99.90;;;;;;5031890;28;20464;-74
2023/01/27 08:52:52;;;;;;;6.57;2.10;;;4.70;99.90;;;;;;5040014;28;20082;-74
2023/01/27 08:55:18;;;;;;;4.15;2.05;;;4.80;99.90;;;;;;5035529;28;20029;-74
2023/01/27 08:57:44;;;;;;;4.18;2.17;;;4.80;99.90;;;;;;5050163;28;20024;-74
2023/01/27 09:00:13;;;;;;;4.75;2.20;;;4.70;99.90;;;;;;5047372;28;20431;-74
2023/01/27 09:02:38;;;;;;;4.57;1.98;;;4.80;99.90;;;;;;5050320;28;20495;-74
2023/01/27 09:05:04;;;;;;;3.45;2.08;;;4.80;99.90;;;;;;5043562;28;20049;-74
2023/01/27 09:07:30;;;;;;;8.13;2.40;;;4.80;99.90;;;;;;5034539;28;20053;-74
2023/01/27 09:09:55;;;;;;;6.05;2.15;;;4.90;99.90;;;;;;5036170;28;20023;-74
2023/01/27 09:12:21;;;;;;;6.72;2.25;;;4.90;99.90;;;;;;5040985;28;20452;-74
2023/01/27 09:14:46;;;;;;;6.40;2.30;;;4.90;99.90;;;;;;5035004;28;20469;-74
2023/01/27 09:17:15;;;;;;;4.93;2.10;;;4.90;99.90;;;;;;5034355;28;20032;-74
2023/01/27 09:19:41;;;;;;;8.38;2.65;;;4.90;99.90;;;;;;5049644;28;20017;-74
2023/01/27 09:22:07;;;;;;;6.20;2.33;;;5.00;99.90;;;;;;5037478;28;20056;-74
2023/01/27 09:24:32;;;;;;;6.43;2.00;;;5.00;99.90;;;;;;5049193;28;20120;-73
2023/01/27 09:26:58;;;;;;;5.68;2.10;;;5.00;99.90;;;;;;5049696;28;20036;-74
2023/01/27 09:29:23;;;;;;;2.95;1.92;;;5.00;99.90;;;;;;5049401;28;20442;-74
2023/01/27 09:31:49;;;;;;;5.38;1.85;;;5.00;99.90;;;;;;5045176;28;20060;-74
2023/01/27 09:34:16;;;;;;;4.72;2.28;;;5.00;99.90;;;;;;5040105;28;20515;-74
2023/01/27 09:36:47;;;;;;;5.28;2.10;;;5.00;99.90;;;;;;5028728;28;20527;-74
2023/01/27 09:39:16;;;;;;;5.10;2.10;;;5.00;99.90;;;;;;5029241;28;20414;-74
2023/01/27 09:41:56;;;;;;;9.38;2.05;;;5.00;99.90;;;;;;5030825;28;20075;-73
2023/01/27 09:44:29;;;;;;;5.75;2.03;;;5.10;99.90;;;;;;5030129;28;20029;-73
2023/01/27 09:47:22;;;;;;;5.88;2.45;;;5.10;99.90;;;;;;5043821;28;20117;-73
2023/01/27 09:50:12;;;;;;;3.78;1.77;;;5.20;99.90;;;;;;5040224;28;20114;-73
2023/01/27 09:52:49;;;;;;;6.47;1.98;;;5.20;99.90;;;;;;5018096;28;20029;-73
2023/01/27 09:55:23;;;;;;;3.88;2.20;;;5.20;99.90;;;;;;5037535;28;20064;-73
2023/01/27 09:58:02;;;;;;;4.27;2.00;;;5.20;99.90;;;;;;5035416;28;20037;-73
2023/01/27 10:00:46;;;;;;;6.30;2.00;;;5.20;99.90;;;;;;5049247;28;20044;-73
2023/01/27 10:03:25;;;;;;;3.40;2.10;;;5.20;99.90;;;;;;5050421;28;20107;-73
2023/01/27 10:05:54;;;;;;;4.90;2.10;;;5.30;99.90;;;;;;5040127;28;20052;-73
2023/01/27 10:08:19;;;;;;;4.65;2.00;;;5.30;99.90;;;;;;5045829;28;20025;-73
2023/01/27 10:11:01;;;;;;;5.22;2.80;;;5.30;99.90;;;;;;5051922;28;20029;-73
2023/01/27 10:13:55;;;;;;;4.57;1.90;;;5.30;99.90;;;;;;5053570;28;20358;-73
2023/01/27 10:16:29;;;;;;;4.07;2.00;;;5.30;99.90;;;;;;5041575;28;20439;-73
2023/01/27 10:18:55;;;;;;;3.58;1.92;;;5.40;99.90;;;;;;5032417;28;20480;-73
2023/01/27 10:21:25;;;;;;;4.18;2.20;;;5.40;99.90;;;;;;5033392;28;20064;-73
2023/01/27 10:24:07;;;;;;;5.60;2.40;;;5.40;99.90;;;;;;5042134;28;20055;-73
2023/01/27 10:26:35;;;;;;;6.38;2.50;;;5.40;99.90;;;;;;5032486;28;20028;-73
2023/01/27 10:29:20;;;;;;;2.47;1.98;;;5.50;99.90;;;;;;5044123;28;20032;-73
2023/01/27 10:31:55;;;;;;;5.03;2.08;;;5.50;99.90;;;;;;5052441;28;20379;-73
2023/01/27 10:34:20;;;;;;;4.85;1.88;;;5.50;99.90;;;;;;5050673;28;20028;-73
2023/01/27 10:36:57;;;;;;;4.38;2.40;;;5.50;99.90;;;;;;5051211;28;20442;-73
2023/01/27 10:39:47;;;;;;;3.70;2.00;;;5.60;99.90;;;;;;5052306;28;20021;-73
2023/01/27 10:42:13;;;;;;;3.53;2.10;;;5.60;99.90;;;;;;5051186;28;20033;-73
2023/01/27 10:44:41;;;;;;;6.88;1.95;;;5.60;99.90;;;;;;5052659;28;20033;-73
2023/01/27 10:47:19;;;;;;;4.43;2.08;;;5.70;99.90;;;;;;5021502;28;20048;-73
2023/01/27 10:49:53;;;;;;;4.47;2.40;;;5.70;99.90;;;;;;5051657;28;20059;-73
2023/01/27 10:52:23;;;;;;;3.67;2.60;;;5.70;99.90;;;;;;5038876;28;20093;-73
2023/01/27 10:55:20;;;;;;;3.08;1.70;;;5.80;99.90;;;;;;5051850;28;20405;-73
2023/01/27 10:58:00;;;;;;;6.97;2.15;;;5.80;99.90;;;;;;5042810;28;20070;-73
2023/01/27 11:00:42;;;;;;;2.60;1.60;;;5.90;99.90;;;;;;5047108;28;20082;-73
2023/01/27 11:03:23;;;;;;;4.22;1.55;;;5.90;99.90;;;;;;5041096;28;20034;-73
2023/01/27 11:06:06;;;;;;;3.17;1.63;;;5.90;99.90;;;;;;5041466;28;20064;-73
2023/01/27 11:08:37;;;;;;;3.03;1.35;;;5.90;99.90;;;;;;5036641;28;20022;-73
2023/01/27 11:14:01;;;;;;;3.35;1.70;;;6.00;99.90;;;;;;5038657;28;20032;-73
2023/01/27 11:16:33;;;;;;;3.05;1.30;;;6.10;99.90;;;;;;5040566;28;20079;-74
2023/01/27 11:19:09;;;;;;;1.73;1.30;;;6.00;99.90;;;;;;5033849;28;20528;-73
2023/01/27 11:21:36;;;;;;;1.80;1.30;;;6.10;99.90;;;;;;5034847;28;20035;-76
2023/01/27 11:24:15;;;;;;;1.98;1.20;;;6.10;99.90;;;;;;5037419;28;20032;-73
2023/01/27 11:26:51;;;;;;;2.95;1.30;;;6.20;99.90;;;;;;5034099;28;20029;-74
2023/01/27 11:29:38;;;;;;;3.08;1.30;;;6.10;99.90;;;;;;5037934;28;20037;-74
2023/01/27 11:32:10;;;;;;;4.75;1.23;;;6.20;99.90;;;;;;5034007;28;20064;-74
2023/01/27 11:34:48;;;;;;;2.17;1.25;;;6.20;99.90;;;;;;5033902;28;20384;-74
2023/01/27 11:37:29;;;;;;;1.42;1.13;;;6.20;99.90;;;;;;5041100;28;20025;-74
2023/01/27 11:39:55;;;;;;;1.30;1.20;;;6.20;99.90;;;;;;5044383;28;20025;-74
2023/01/27 11:42:21;;;;;;;1.75;1.30;;;6.30;99.90;;;;;;5035528;28;20033;-74
2023/01/27 11:44:53;;;;;;;2.88;1.20;;;6.40;99.90;;;;;;5036361;28;20021;-74
2023/01/27 11:47:27;;;;;;;1.40;1.30;;;6.40;99.90;;;;;;5038830;28;20037;-74
2023/01/27 11:49:54;;;;;;;2.47;1.20;;;6.30;99.90;;;;;;5040134;28;20049;-74
2023/01/27 11:52:25;;;;;;;2.00;1.08;;;6.30;99.90;;;;;;5047742;28;20108;-75
2023/01/27 11:55:15;;;;;;;3.50;1.23;;;6.30;99.90;;;;;;5049792;28;20048;-74
2023/01/27 11:57:44;;;;;;;2.75;1.00;;;6.30;99.90;;;;;;5040193;28;20028;-75
2023/01/27 12:00:25;;;;;;;1.52;1.00;;;6.30;99.90;;;;;;5038421;28;20464;-75
2023/01/27 12:03:13;;;;;;;1.50;1.08;;;6.40;99.90;;;;;;5043831;28;20042;-74
2023/01/27 12:05:52;;;;;;;2.58;1.30;;;6.40;99.90;;;;;;5030660;28;20036;-74
2023/01/27 12:08:44;;;;;;;3.47;1.25;;;6.40;99.90;;;;;;5038651;28;20029;-75
2023/01/27 12:11:20;;;;;;;2.25;1.20;;;6.40;99.90;;;;;;5045779;28;20083;-75
2023/01/27 12:14:04;;;;;;;1.63;1.33;;;6.40;99.90;;;;;;5039838;28;20385;-75
2023/01/27 12:16:51;;;;;;;1.38;1.00;;;6.40;99.90;;;;;;5046298;28;20112;-76
2023/01/27 12:19:39;;;;;;;1.67;0.95;;;6.40;99.90;;;;;;5050778;28;20045;-75
2023/01/27 12:22:17;;;;;;;2.15;0.90;;;6.40;99.90;;;;;;5046949;28;20029;-75
2023/01/27 12:24:49;;;;;;;1.85;0.98;;;6.40;99.90;;;;;;5035974;28;20083;-75
2023/01/27 12:27:24;;;;;;;1.15;0.90;;;6.40;99.90;;;;;;5042289;28;20032;-75
2023/01/27 12:29:58;;;;;;;5.47;1.40;;;6.30;99.90;;;;;;5045191;28;20025;-75
2023/01/27 12:32:40;;;;;;;2.85;1.15;;;6.30;99.90;;;;;;5031288;28;20030;-75
2023/01/27 12:35:17;;;;;;;1.85;1.30;;;6.40;99.90;;;;;;5014658;28;20029;-74
2023/01/27 12:37:43;;;;;;;2.40;1.30;;;6.30;99.90;;;;;;5030930;28;20030;-74
2023/01/27 12:40:23;;;;;;;2.60;1.00;;;6.40;99.90;;;;;;5046218;28;20104;-75
2023/01/27 12:43:08;;;;;;;1.48;1.10;;;6.40;99.90;;;;;;5048615;28;20029;-74
2023/01/27 12:45:36;;;;;;;1.88;1.48;;;6.30;99.90;;;;;;5045036;28;20028;-75
2023/01/27 12:48:04;;;;;;;2.08;1.30;;;6.40;99.90;;;;;;5050014;28;20056;-75
2023/01/27 12:50:33;;;;;;;1.67;1.27;;;6.30;99.90;;;;;;5049388;28;20091;-75
2023/01/27 12:53:11;;;;;;;2.75;1.50;;;6.30;99.90;;;;;;5049007;28;20151;-75
2023/01/27 12:56:14;;;;;;;4.25;1.73;;;6.30;99.90;;;;;;5050032;28;20040;-75
2023/01/27 12:58:53;;;;;;;1.23;1.13;;;6.20;99.90;;;;;;5039782;28;20040;-75
2023/01/27 13:01:45;;;;;;;1.55;1.10;;;6.20;99.90;;;;;;5049219;28;20163;-75
2023/01/27 13:04:15;;;;;;;6.18;1.27;;;6.20;99.90;;;;;;5050768;28;20021;-75
2023/01/27 13:06:50;;;;;;;2.42;1.20;;;6.10;99.90;;;;;;5032503;28;20021;-75
2023/01/27 13:09:36;;;;;;;1.43;1.30;;;6.10;99.90;;;;;;5050886;28;20597;-74
2023/01/27 13:12:11;;;;;;;2.72;1.40;;;6.10;99.90;;;;;;5050253;28;20024;-74
2023/01/27 13:14:40;;;;;;;1.30;1.20;;;6.10;99.90;;;;;;5050977;28;20526;-75
2023/01/27 13:17:34;;;;;;;2.58;1.40;;;6.10;99.90;;;;;;5050151;28;20078;-74
2023/01/27 13:20:13;;;;;;;5.68;1.60;;;6.10;99.90;;;;;;5050509;28;20036;-73
2023/01/27 13:22:47;;;;;;;2.55;1.50;;;6.10;99.90;;;;;;5050480;28;20064;-74
2023/01/27 13:25:25;;;;;;;3.72;1.58;;;6.10;99.90;;;;;;5050451;28;20064;-74
2023/01/27 13:27:56;;;;;;;1.95;1.58;;;6.10;99.90;;;;;;5050864;28;20064;-74
2023/01/27 13:30:29;;;;;;;1.60;1.50;;;6.00;99.90;;;;;;5044235;28;20080;-74
2023/01/27 13:33:16;;;;;;;4.05;1.60;;;6.10;99.90;;;;;;5043963;28;20447;-74
2023/01/27 13:35:54;;;;;;;3.83;2.00;;;6.00;99.90;;;;;;5017804;28;20108;-74
2023/01/27 13:38:50;;;;;;;2.63;1.70;;;6.00;99.90;;;;;;5043432;28;20060;-74
2023/01/27 13:41:30;;;;;;;2.80;1.60;;;6.00;99.90;;;;;;5037775;28;20036;-74
2023/01/27 13:44:28;;;;;;;2.55;1.55;;;5.90;99.90;;;;;;5050442;28;20052;-74
2023/01/27 13:47:00;;;;;;;3.65;1.70;;;5.90;99.90;;;;;;5050716;28;20025;-74
2023/01/27 13:49:46;;;;;;;2.05;1.60;;;6.00;99.90;;;;;;5049748;28;20044;-75